Terminal Aerodrome Forecast
Issued by NWS Cleveland, OH

Home | Current Version | Previous Version | Graphics & Text | Print | Product List | Glossary On
Versions: 1 2 3 4 5 6 7 8 9 10 11 12 13 14 15 16 17 18 19 20 21 22 23 24 25 26 27 28
764
FTUS41 KCLE 241124
TAFCLE
TAF
KCLE 241124Z 2412/2518 18011KT P6SM SCT025 BKN080
     FM241800 19015G25KT P6SM SCT045 BKN200
     FM250300 19014KT P6SM -SHRA VCTS SCT045CB BKN150
      TEMPO 2505/2508 26020G40KT 3SM TSRA BKN020CB
     FM251400 23015G22KT P6SM VCSH OVC025=

USA.gov is the U.S. government's official web portal to all federal, state and local government web resources and services.